createdAt,value
2022-11-16T00:01:49.579Z,13.40
2022-11-16T00:05:08.783Z,12.05
2022-11-16T00:08:05.970Z,13.20
2022-11-16T00:11:06.975Z,13.00
2022-11-16T00:13:55.607Z,12.65
2022-11-16T00:16:44.539Z,13.95
2022-11-16T00:19:33.042Z,13.00
2022-11-16T00:22:21.574Z,12.88
2022-11-16T00:25:12.862Z,13.30
2022-11-16T00:28:01.199Z,12.18
2022-11-16T00:31:02.516Z,12.50
2022-11-16T00:33:52.645Z,13.10
2022-11-16T00:36:40.923Z,10.63
2022-11-16T00:39:29.043Z,13.00
2022-11-16T00:42:19.868Z,11.20
2022-11-16T00:45:08.730Z,10.70
2022-11-16T00:48:00.455Z,9.82
2022-11-16T00:50:49.292Z,10.32
2022-11-16T00:53:39.299Z,11.13
2022-11-16T00:56:27.541Z,11.63
2022-11-16T00:59:15.524Z,11.70
2022-11-16T01:02:03.666Z,11.15
2022-11-16T01:04:51.810Z,11.52
2022-11-16T01:07:41.286Z,11.63
2022-11-16T01:10:30.334Z,12.23
2022-11-16T01:13:18.511Z,14.13
2022-11-16T01:16:06.812Z,13.88
2022-11-16T01:18:55.698Z,13.68
2022-11-16T01:21:43.632Z,13.45
2022-11-16T01:24:32.127Z,14.05
2022-11-16T01:27:20.065Z,14.68
2022-11-16T01:30:11.821Z,12.77
2022-11-16T01:32:59.893Z,14.48
2022-11-16T01:35:47.782Z,14.38
2022-11-16T01:38:36.226Z,12.60
2022-11-16T01:41:26.228Z,13.98
2022-11-16T01:44:32.510Z,13.32
2022-11-16T01:47:20.487Z,13.48
2022-11-16T01:50:23.810Z,13.63
2022-11-16T01:53:14.786Z,14.57
2022-11-16T01:56:02.896Z,14.70
2022-11-16T01:58:51.533Z,14.73
2022-11-16T02:01:39.761Z,13.85
2022-11-16T02:04:28.188Z,12.52
2022-11-16T02:08:12.354Z,13.50
2022-11-16T02:11:27.646Z,15.07
2022-11-16T02:14:35.455Z,15.80
2022-11-16T02:17:41.766Z,13.98
2022-11-16T02:21:06.901Z,14.93
2022-11-16T02:24:20.432Z,15.43
2022-11-16T02:27:36.148Z,14.18
2022-11-16T02:30:24.371Z,17.17
2022-11-16T02:33:21.310Z,16.23
2022-11-16T02:36:14.613Z,15.90
2022-11-16T02:39:10.308Z,15.43
2022-11-16T02:41:59.850Z,17.23
2022-11-16T02:44:51.856Z,16.83
2022-11-16T02:47:41.972Z,17.60
2022-11-16T02:50:31.184Z,18.13
2022-11-16T02:53:22.223Z,17.95
2022-11-16T02:56:13.775Z,17.00
2022-11-16T02:59:02.085Z,18.63
2022-11-16T03:02:20.270Z,17.45
2022-11-16T03:05:15.877Z,17.25
2022-11-16T03:08:20.031Z,17.83
2022-11-16T03:11:28.879Z,18.98
2022-11-16T03:14:21.039Z,20.08
2022-11-16T03:17:17.856Z,16.80
2022-11-16T03:20:14.210Z,19.98
2022-11-16T03:23:07.591Z,19.02
2022-11-16T03:25:58.321Z,19.10
2022-11-16T03:29:13.431Z,18.52
2022-11-16T03:32:21.214Z,17.88
2022-11-16T03:35:48.627Z,20.88
2022-11-16T03:38:39.970Z,21.90
2022-11-16T03:41:31.115Z,23.38
2022-11-16T03:44:20.262Z,22.00
2022-11-16T03:47:08.152Z,22.88
2022-11-16T03:49:56.001Z,24.85
2022-11-16T03:52:43.962Z,24.60
2022-11-16T03:55:31.999Z,24.92
2022-11-16T03:58:20.019Z,29.10
2022-11-16T04:01:08.517Z,30.10
2022-11-16T04:03:56.393Z,21.58
2022-11-16T04:07:02.886Z,22.70
2022-11-16T04:10:10.001Z,23.13
2022-11-16T04:13:18.377Z,24.65
2022-11-16T04:16:28.000Z,23.83
2022-11-16T04:19:34.423Z,25.17
2022-11-16T04:22:47.419Z,22.98
2022-11-16T04:25:39.328Z,24.60
2022-11-16T04:28:32.283Z,21.70
2022-11-16T04:32:00.624Z,24.77
2022-11-16T04:35:07.250Z,21.73
2022-11-16T04:37:57.597Z,22.52
2022-11-16T04:40:45.499Z,25.73
2022-11-16T04:43:33.555Z,28.92
2022-11-16T04:46:39.899Z,27.10
2022-11-16T04:49:27.925Z,25.13
2022-11-16T04:52:16.311Z,25.48
2022-11-16T04:55:04.833Z,25.00
2022-11-16T04:57:53.036Z,26.20
2022-11-16T05:00:41.112Z,27.90
2022-11-16T05:03:28.985Z,31.52
2022-11-16T05:06:17.531Z,32.80
2022-11-16T05:09:05.899Z,33.53
2022-11-16T05:11:53.794Z,29.13
2022-11-16T05:14:42.731Z,36.13
2022-11-16T05:17:31.043Z,36.95
2022-11-16T05:20:37.660Z,34.38
2022-11-16T05:23:44.324Z,33.00
2022-11-16T05:26:32.166Z,41.15
2022-11-16T05:29:20.083Z,39.60
2022-11-16T05:32:09.891Z,34.42
2022-11-16T05:34:58.103Z,40.13
2022-11-16T05:37:45.885Z,43.03
2022-11-16T05:40:34.185Z,42.15
2022-11-16T05:43:22.273Z,39.67
2022-11-16T05:46:10.233Z,37.80
2022-11-16T05:49:01.489Z,38.05
2022-11-16T05:51:49.699Z,42.70
2022-11-16T05:54:37.613Z,37.10
2022-11-16T05:57:25.726Z,39.88
2022-11-16T06:00:17.336Z,41.47
2022-11-16T06:03:05.538Z,40.53
2022-11-16T06:05:56.325Z,44.03
2022-11-16T06:08:44.333Z,37.03
2022-11-16T06:11:36.155Z,40.85
2022-11-16T06:14:24.568Z,39.33
2022-11-16T06:17:14.612Z,38.33
2022-11-16T06:20:03.529Z,38.13
2022-11-16T06:22:51.385Z,37.97
2022-11-16T06:25:39.912Z,40.53
2022-11-16T06:28:28.790Z,39.55
2022-11-16T06:31:16.710Z,40.70
2022-11-16T06:34:17.330Z,39.90
2022-11-16T06:37:07.521Z,35.40
2022-11-16T06:39:55.587Z,38.47
2022-11-16T06:42:47.185Z,40.50
2022-11-16T06:46:08.020Z,40.78
2022-11-16T06:49:09.818Z,42.58
2022-11-16T06:52:03.605Z,41.85
2022-11-16T06:54:57.214Z,37.38
2022-11-16T06:57:50.521Z,40.60
2022-11-16T07:00:38.868Z,39.47
2022-11-16T07:03:31.503Z,36.83
2022-11-16T07:06:22.016Z,40.33
2022-11-16T07:09:28.194Z,35.40
2022-11-16T07:12:28.936Z,34.83
2022-11-16T07:15:26.212Z,35.05
2022-11-16T07:18:14.922Z,33.67
2022-11-16T07:21:24.384Z,31.17
2022-11-16T07:27:15.503Z,31.88
2022-11-16T07:30:17.247Z,31.80
2022-11-16T07:33:05.471Z,32.50
2022-11-16T07:36:26.656Z,31.17
2022-11-16T07:39:22.638Z,29.27
2022-11-16T07:42:12.872Z,33.15
2022-11-16T07:45:01.194Z,30.13
2022-11-16T07:48:06.375Z,28.80
2022-11-16T07:51:39.850Z,29.02
2022-11-16T08:05:59.677Z,22.85
2022-11-16T08:09:22.773Z,20.73
2022-11-16T08:20:45.274Z,21.60
2022-11-16T08:24:33.886Z,20.65
2022-11-16T08:28:29.879Z,18.75
2022-11-16T08:52:25.486Z,16.08
2022-11-16T13:36:59.516Z,3.08
2022-11-16T13:47:26.840Z,3.42
2022-11-16T18:18:06.352Z,8.25
2022-11-16T18:21:30.756Z,9.63
